createdAt,value
2022-08-26T00:02:07.663Z,1.83
2022-08-26T00:04:36.290Z,1.60
2022-08-26T00:07:05.390Z,1.52
2022-08-26T00:09:37.250Z,1.35
2022-08-26T00:12:12.282Z,1.60
2022-08-26T00:14:41.579Z,1.77
2022-08-26T00:17:09.725Z,1.60
2022-08-26T00:19:37.842Z,1.80
2022-08-26T00:22:06.488Z,1.85
2022-08-26T00:24:34.595Z,1.73
2022-08-26T00:27:02.670Z,2.28
2022-08-26T00:29:34.939Z,2.00
2022-08-26T00:32:06.562Z,1.40
2022-08-26T00:34:34.950Z,1.85
2022-08-26T00:37:02.969Z,1.75
2022-08-26T00:39:31.541Z,1.63
2022-08-26T00:42:00.563Z,1.75
2022-08-26T00:44:28.625Z,1.60
2022-08-26T00:47:04.121Z,1.50
2022-08-26T00:49:38.936Z,1.65
2022-08-26T00:52:09.889Z,1.30
2022-08-26T00:54:47.069Z,2.03
2022-08-26T00:57:18.630Z,1.90
2022-08-26T00:59:51.692Z,1.95
2022-08-26T01:02:21.814Z,1.60
2022-08-26T01:04:55.769Z,1.60
2022-08-26T01:07:26.192Z,2.03
2022-08-26T01:09:56.441Z,1.70
2022-08-26T01:12:26.028Z,1.73
2022-08-26T01:14:54.348Z,1.90
2022-08-26T01:17:24.712Z,2.03
2022-08-26T01:19:58.359Z,1.75
2022-08-26T01:22:31.279Z,1.70
2022-08-26T01:25:03.637Z,1.80
2022-08-26T01:27:33.634Z,1.60
2022-08-26T01:30:03.240Z,1.60
2022-08-26T01:32:34.340Z,1.60
2022-08-26T01:35:03.180Z,1.55
2022-08-26T01:37:36.546Z,1.75
2022-08-26T01:40:10.727Z,1.80
2022-08-26T01:42:38.786Z,2.25
2022-08-26T01:45:11.403Z,2.03
2022-08-26T01:47:39.994Z,2.03
2022-08-26T01:50:15.661Z,1.50
2022-08-26T01:52:54.250Z,1.98
2022-08-26T01:55:32.447Z,1.77
2022-08-26T01:58:05.855Z,1.42
2022-08-26T02:00:36.003Z,2.10
2022-08-26T02:03:18.652Z,2.10
2022-08-26T02:05:48.797Z,2.20
2022-08-26T02:08:24.657Z,2.03
2022-08-26T02:10:55.228Z,2.10
2022-08-26T02:13:24.522Z,1.92
2022-08-26T02:15:53.813Z,1.70
2022-08-26T02:18:22.487Z,2.28
2022-08-26T02:20:51.712Z,2.10
2022-08-26T02:23:19.977Z,2.05
2022-08-26T02:25:54.673Z,1.90
2022-08-26T02:28:26.816Z,2.17
2022-08-26T02:30:55.720Z,2.05
2022-08-26T02:33:23.881Z,1.75
2022-08-26T02:35:52.469Z,1.83
2022-08-26T02:38:20.403Z,2.28
2022-08-26T02:40:48.394Z,1.90
2022-08-26T02:43:17.112Z,2.03
2022-08-26T02:45:47.221Z,2.00
2022-08-26T02:48:19.075Z,2.20
2022-08-26T02:50:47.095Z,2.35
2022-08-26T02:53:16.192Z,2.03
2022-08-26T02:55:44.616Z,2.00
2022-08-26T02:58:17.148Z,2.30
2022-08-26T03:00:53.077Z,1.77
2022-08-26T03:03:23.596Z,1.90
2022-08-26T03:05:51.682Z,1.90
2022-08-26T03:08:19.829Z,2.13
2022-08-26T03:10:48.026Z,2.20
2022-08-26T03:13:18.182Z,1.98
2022-08-26T03:15:47.870Z,2.15
2022-08-26T03:18:16.207Z,2.22
2022-08-26T03:20:44.172Z,1.88
2022-08-26T03:23:12.593Z,1.95
2022-08-26T03:25:40.797Z,2.30
2022-08-26T03:28:09.638Z,2.38
2022-08-26T03:30:45.309Z,2.50
2022-08-26T03:33:15.661Z,2.45
2022-08-26T03:35:47.281Z,2.70
2022-08-26T03:38:16.328Z,2.28
2022-08-26T03:40:44.748Z,2.30
2022-08-26T03:43:13.395Z,2.28
2022-08-26T03:45:41.998Z,2.05
2022-08-26T03:48:11.408Z,2.38
2022-08-26T03:50:41.459Z,2.10
2022-08-26T03:53:12.736Z,2.03
2022-08-26T03:55:42.301Z,2.35
2022-08-26T03:58:11.667Z,1.88
2022-08-26T04:00:39.885Z,2.17
2022-08-26T04:03:10.048Z,1.70
2022-08-26T04:05:38.981Z,2.33
2022-08-26T04:08:08.399Z,2.20
2022-08-26T04:10:39.011Z,2.70
2022-08-26T04:13:07.422Z,2.10
2022-08-26T04:15:35.688Z,2.15
2022-08-26T04:18:04.254Z,2.10
2022-08-26T04:20:32.368Z,2.40
2022-08-26T04:23:00.588Z,2.78
2022-08-26T04:25:30.086Z,2.70
2022-08-26T04:27:58.067Z,2.25
2022-08-26T04:30:26.254Z,2.00
2022-08-26T04:32:54.356Z,1.90
2022-08-26T04:35:25.596Z,2.10
2022-08-26T04:37:55.497Z,2.17
2022-08-26T04:40:24.012Z,2.00
2022-08-26T04:42:55.280Z,1.92
2022-08-26T04:45:23.391Z,1.83
2022-08-26T04:47:56.293Z,1.90
2022-08-26T04:50:26.613Z,2.10
2022-08-26T04:52:55.425Z,2.20
2022-08-26T04:55:38.443Z,2.00
2022-08-26T04:58:10.389Z,2.17
2022-08-26T05:00:39.950Z,2.15
2022-08-26T05:03:10.509Z,1.90
2022-08-26T05:05:43.316Z,2.22
2022-08-26T05:08:13.206Z,1.90
2022-08-26T05:10:42.205Z,2.03
2022-08-26T05:13:15.563Z,2.10
2022-08-26T05:15:45.087Z,2.30
2022-08-26T05:18:14.252Z,2.10
2022-08-26T05:20:44.618Z,2.10
2022-08-26T05:23:13.719Z,2.10
2022-08-26T05:25:44.802Z,2.25
2022-08-26T05:28:16.463Z,2.25
2022-08-26T05:30:45.251Z,1.98
2022-08-26T05:33:14.261Z,2.05
2022-08-26T05:35:43.371Z,2.08
2022-08-26T05:38:14.518Z,2.05
2022-08-26T05:40:45.597Z,2.50
2022-08-26T05:43:15.117Z,2.50
2022-08-26T05:45:45.875Z,2.60
2022-08-26T05:48:16.092Z,2.97
2022-08-26T05:50:46.563Z,2.90
2022-08-26T05:53:17.507Z,3.42
2022-08-26T05:55:47.450Z,3.08
2022-08-26T05:58:20.125Z,2.75
2022-08-26T06:00:57.123Z,2.70
2022-08-26T06:03:25.363Z,3.20
2022-08-26T06:05:53.656Z,2.65
2022-08-26T06:08:22.409Z,4.78
2022-08-26T06:10:53.058Z,4.57
2022-08-26T06:13:25.622Z,4.78
2022-08-26T06:15:55.427Z,4.68
2022-08-26T06:18:32.543Z,4.93
2022-08-26T06:21:00.895Z,3.88
2022-08-26T06:23:48.116Z,4.60
2022-08-26T06:26:17.742Z,4.20
2022-08-26T06:28:47.080Z,4.63
2022-08-26T06:31:16.063Z,3.75
2022-08-26T06:33:44.669Z,3.20
2022-08-26T06:36:17.327Z,3.22
2022-08-26T06:38:47.801Z,3.22
2022-08-26T06:41:15.925Z,3.45
2022-08-26T06:43:43.944Z,3.47
2022-08-26T06:46:16.554Z,2.63
2022-08-26T06:48:45.287Z,2.15
2022-08-26T06:51:15.434Z,2.30
2022-08-26T06:53:46.986Z,2.13
2022-08-26T06:56:18.936Z,1.88
2022-08-26T06:58:46.996Z,2.00
2022-08-26T07:01:22.429Z,2.05
2022-08-26T07:03:52.132Z,2.00
2022-08-26T07:06:22.670Z,2.40
2022-08-26T07:08:52.361Z,2.03
2022-08-26T07:11:21.384Z,2.67
2022-08-26T07:13:51.310Z,2.15
2022-08-26T07:16:22.020Z,2.67
2022-08-26T07:18:53.093Z,2.40
2022-08-26T07:21:22.301Z,2.20
2022-08-26T07:23:51.857Z,2.63
2022-08-26T07:26:21.803Z,2.88
2022-08-26T07:28:55.031Z,2.70
2022-08-26T07:31:26.422Z,2.50
2022-08-26T07:33:54.987Z,2.17
2022-08-26T07:36:24.213Z,2.47
2022-08-26T07:38:53.424Z,2.55
2022-08-26T07:41:27.119Z,2.67
2022-08-26T07:43:55.663Z,2.85
2022-08-26T07:46:29.891Z,2.97
2022-08-26T07:48:59.636Z,2.90
2022-08-26T07:51:28.380Z,2.92
2022-08-26T07:53:56.741Z,3.08
2022-08-26T07:56:25.280Z,2.92
2022-08-26T07:58:54.466Z,3.28
2022-08-26T08:01:24.759Z,3.10
2022-08-26T08:03:55.583Z,3.28
2022-08-26T08:06:28.246Z,2.90
2022-08-26T08:08:57.123Z,2.70
2022-08-26T08:11:27.266Z,2.97
2022-08-26T08:13:56.450Z,3.17
2022-08-26T08:16:32.299Z,3.38
2022-08-26T08:19:03.880Z,2.72
2022-08-26T08:21:32.447Z,3.13
2022-08-26T08:24:00.914Z,2.88
2022-08-26T08:26:28.857Z,3.00
2022-08-26T08:28:59.087Z,3.17
2022-08-26T08:31:57.110Z,3.20
2022-08-26T08:34:19.344Z,2.92
2022-08-26T08:36:50.375Z,3.10
2022-08-26T08:39:22.411Z,2.63
2022-08-26T08:42:04.273Z,3.67
2022-08-26T08:44:32.627Z,2.65
2022-08-26T08:47:06.359Z,3.20
2022-08-26T08:49:36.133Z,3.05
2022-08-26T08:52:11.882Z,3.22
2022-08-26T08:54:39.915Z,3.20
2022-08-26T08:57:13.660Z,3.55
2022-08-26T08:59:50.975Z,3.35
2022-08-26T09:02:28.738Z,3.70
2022-08-26T09:05:06.551Z,3.70
2022-08-26T09:07:40.120Z,3.83
2022-08-26T09:10:25.367Z,5.15
2022-08-26T09:12:54.090Z,4.45
2022-08-26T09:15:28.679Z,3.90
2022-08-26T09:18:10.767Z,5.13
2022-08-26T09:20:48.020Z,4.72
2022-08-26T09:23:18.206Z,4.47
2022-08-26T09:25:48.165Z,3.92
2022-08-26T09:28:19.415Z,4.30
2022-08-26T09:31:03.512Z,4.70
2022-08-26T09:33:34.129Z,3.90
2022-08-26T09:36:26.221Z,3.83
2022-08-26T09:38:55.133Z,3.47
2022-08-26T09:41:27.027Z,3.90
2022-08-26T09:44:14.754Z,4.20
2022-08-26T09:46:47.814Z,3.40
2022-08-26T09:49:26.713Z,3.63
2022-08-26T09:52:09.710Z,3.97
2022-08-26T09:54:39.073Z,3.53
2022-08-26T09:57:22.660Z,3.35
2022-08-26T09:59:51.038Z,3.83
2022-08-26T10:02:36.819Z,3.67
2022-08-26T10:05:09.626Z,3.72
2022-08-26T10:07:46.975Z,4.40
2022-08-26T10:10:24.015Z,3.92
2022-08-26T10:13:04.354Z,4.45
2022-08-26T10:15:42.421Z,3.85
2022-08-26T10:18:21.082Z,4.00
2022-08-26T10:20:57.141Z,3.78
2022-08-26T10:23:32.179Z,3.42
2022-08-26T10:26:06.902Z,4.15
2022-08-26T10:28:41.298Z,3.35
2022-08-26T10:31:30.303Z,4.03
2022-08-26T10:34:06.628Z,4.28
2022-08-26T10:37:14.680Z,4.40
2022-08-26T10:39:49.491Z,3.88
2022-08-26T10:42:31.209Z,5.10
2022-08-26T10:45:07.618Z,4.13
2022-08-26T10:47:47.068Z,4.00
2022-08-26T10:50:18.090Z,3.83
2022-08-26T10:53:01.773Z,4.00
2022-08-26T10:55:37.223Z,3.58
2022-08-26T10:58:26.210Z,3.70
2022-08-26T11:01:22.588Z,3.17
2022-08-26T11:04:00.652Z,3.17
2022-08-26T11:06:31.390Z,3.20
2022-08-26T11:09:02.181Z,3.90
2022-08-26T11:11:46.911Z,3.10
2022-08-26T11:14:46.016Z,3.17
2022-08-26T11:17:56.555Z,3.22
2022-08-26T11:20:37.457Z,3.53
2022-08-26T11:23:40.385Z,3.63
2022-08-26T11:26:18.910Z,3.60
2022-08-26T11:29:12.139Z,3.92
2022-08-26T11:31:57.001Z,4.18
2022-08-26T11:34:54.923Z,3.65
2022-08-26T11:37:33.533Z,3.13
2022-08-26T11:40:04.679Z,4.05
2022-08-26T11:42:39.489Z,3.97
2022-08-26T11:45:19.336Z,4.28
2022-08-26T11:47:49.342Z,3.70
2022-08-26T11:50:20.722Z,3.67
2022-08-26T11:53:01.706Z,4.03
2022-08-26T11:55:30.931Z,3.30
2022-08-26T11:58:02.308Z,3.40
2022-08-26T12:00:50.142Z,3.33
2022-08-26T12:03:23.019Z,3.45
2022-08-26T12:05:55.134Z,3.40
2022-08-26T12:08:27.910Z,3.40
2022-08-26T12:11:03.566Z,4.35
2022-08-26T12:13:32.054Z,4.00
2022-08-26T12:16:02.647Z,3.72
2022-08-26T12:18:33.323Z,4.25
2022-08-26T12:21:10.953Z,4.55
2022-08-26T12:23:44.737Z,4.10
2022-08-26T12:26:22.518Z,4.40
2022-08-26T12:28:55.549Z,5.05
2022-08-26T12:31:34.549Z,4.50
2022-08-26T12:34:05.499Z,5.05
2022-08-26T12:36:38.229Z,4.57
2022-08-26T12:39:11.193Z,5.05
2022-08-26T12:41:48.311Z,4.88
2022-08-26T12:44:53.287Z,6.32
2022-08-26T12:47:30.964Z,5.35
2022-08-26T12:50:18.204Z,5.32
2022-08-26T12:52:57.456Z,5.60
2022-08-26T12:55:35.599Z,5.50
2022-08-26T12:58:29.679Z,4.97
2022-08-26T13:00:59.469Z,5.28
2022-08-26T13:03:43.422Z,5.00
2022-08-26T13:06:18.311Z,4.32
2022-08-26T13:08:47.094Z,4.38
2022-08-26T13:11:20.976Z,4.45
2022-08-26T13:13:51.934Z,4.15
2022-08-26T13:16:22.717Z,3.90
2022-08-26T13:18:55.223Z,3.90
2022-08-26T13:21:24.977Z,4.80
2022-08-26T13:23:53.459Z,5.13
2022-08-26T13:26:22.712Z,4.68
2022-08-26T13:28:53.309Z,4.40
2022-08-26T13:31:32.223Z,3.20
2022-08-26T13:34:03.690Z,3.30
2022-08-26T13:36:32.229Z,3.72
2022-08-26T13:39:00.776Z,3.72
2022-08-26T13:41:29.005Z,3.22
2022-08-26T13:43:58.918Z,3.05
2022-08-26T13:46:27.920Z,3.17
2022-08-26T13:48:56.299Z,3.65
2022-08-26T13:51:27.631Z,2.92
2022-08-26T13:53:55.911Z,2.83
2022-08-26T13:56:24.152Z,2.90
2022-08-26T13:58:52.214Z,2.70
2022-08-26T14:01:20.398Z,3.10
2022-08-26T14:03:48.702Z,2.58
2022-08-26T14:06:17.354Z,2.80
2022-08-26T14:08:47.193Z,2.53
2022-08-26T14:11:16.414Z,3.05
2022-08-26T14:13:44.509Z,2.95
2022-08-26T14:16:27.173Z,3.10
2022-08-26T14:18:55.575Z,3.22
2022-08-26T14:21:25.421Z,3.10
2022-08-26T14:24:00.314Z,2.80
2022-08-26T14:26:29.944Z,3.00
2022-08-26T14:28:58.954Z,3.40
2022-08-26T14:31:29.359Z,2.85
2022-08-26T14:33:59.549Z,2.85
2022-08-26T14:36:32.383Z,3.15
2022-08-26T14:39:05.470Z,3.10
2022-08-26T14:41:37.150Z,3.00
2022-08-26T14:44:09.012Z,3.15
2022-08-26T14:46:42.897Z,4.45
2022-08-26T14:49:11.062Z,6.50
2022-08-26T14:51:39.175Z,3.10
2022-08-26T14:54:16.127Z,3.67
2022-08-26T14:56:48.572Z,3.22
2022-08-26T14:59:19.259Z,3.28
2022-08-26T15:01:48.090Z,3.03
2022-08-26T15:04:16.306Z,3.60
2022-08-26T15:06:44.988Z,3.05
2022-08-26T15:09:15.372Z,3.15
2022-08-26T15:11:43.390Z,3.40
2022-08-26T15:14:19.206Z,3.38
2022-08-26T15:16:49.600Z,3.47
2022-08-26T15:19:18.412Z,3.00
2022-08-26T15:21:47.307Z,3.45
2022-08-26T15:24:19.270Z,3.25
2022-08-26T15:26:48.084Z,3.10
2022-08-26T15:29:16.598Z,3.50
2022-08-26T15:31:44.765Z,3.55
2022-08-26T15:34:16.667Z,3.58
2022-08-26T15:36:46.398Z,3.00
2022-08-26T15:39:17.895Z,3.65
2022-08-26T15:41:46.710Z,3.30
2022-08-26T15:44:17.850Z,3.58
2022-08-26T15:46:46.476Z,3.38
2022-08-26T15:49:18.436Z,3.17
2022-08-26T15:51:48.235Z,3.55
2022-08-26T15:54:19.664Z,3.45
2022-08-26T15:56:50.628Z,3.83
2022-08-26T15:59:19.934Z,3.88
2022-08-26T16:01:48.298Z,3.50
2022-08-26T16:04:17.784Z,3.78
2022-08-26T16:06:50.165Z,3.60
2022-08-26T16:09:19.975Z,3.90
2022-08-26T16:11:48.047Z,3.58
2022-08-26T16:14:16.610Z,3.80
2022-08-26T16:16:44.640Z,3.60
2022-08-26T16:19:12.778Z,3.63
2022-08-26T16:21:42.188Z,3.90
2022-08-26T16:24:10.818Z,3.72
2022-08-26T16:26:42.474Z,3.22
2022-08-26T16:29:12.376Z,4.05
2022-08-26T16:31:40.856Z,3.70
2022-08-26T16:34:09.895Z,4.10
2022-08-26T16:36:39.518Z,4.10
2022-08-26T16:39:09.258Z,3.65
2022-08-26T16:41:37.543Z,4.18
2022-08-26T16:44:08.564Z,4.47
2022-08-26T16:46:37.341Z,3.42
2022-08-26T16:49:05.425Z,3.50
2022-08-26T16:51:37.960Z,3.60
2022-08-26T16:54:08.620Z,3.83
2022-08-26T16:56:37.538Z,3.38
2022-08-26T16:59:09.569Z,3.85
2022-08-26T17:01:37.751Z,3.40
2022-08-26T17:04:06.017Z,3.35
2022-08-26T17:06:34.111Z,3.30
2022-08-26T17:09:02.161Z,3.28
2022-08-26T17:11:30.405Z,3.40
2022-08-26T17:13:58.457Z,3.20
2022-08-26T17:16:28.541Z,3.05
2022-08-26T17:18:57.462Z,4.00
2022-08-26T17:21:26.532Z,3.00
2022-08-26T17:23:55.496Z,3.55
2022-08-26T17:26:24.393Z,3.92
2022-08-26T17:28:52.593Z,3.25
2022-08-26T17:31:21.179Z,3.28
2022-08-26T17:33:53.799Z,3.53
2022-08-26T17:36:22.958Z,3.20
2022-08-26T17:38:55.745Z,3.33
2022-08-26T17:41:23.737Z,3.33
2022-08-26T17:43:51.704Z,3.58
2022-08-26T17:46:19.770Z,4.03
2022-08-26T17:48:48.319Z,3.45
2022-08-26T17:51:19.537Z,3.80
2022-08-26T17:53:48.030Z,3.75
2022-08-26T17:56:19.126Z,3.20
2022-08-26T17:58:51.403Z,3.50
2022-08-26T18:01:20.399Z,3.20
2022-08-26T18:03:49.010Z,3.00
2022-08-26T18:06:18.447Z,3.47
2022-08-26T18:08:46.509Z,3.20
2022-08-26T18:11:16.904Z,3.13
2022-08-26T18:13:47.446Z,3.00
2022-08-26T18:16:17.921Z,3.10
2022-08-26T18:18:46.801Z,3.80
2022-08-26T18:21:18.567Z,3.38
2022-08-26T18:23:48.512Z,3.30
2022-08-26T18:26:18.631Z,2.88
2022-08-26T18:28:47.004Z,3.25
2022-08-26T18:31:15.868Z,3.40
2022-08-26T18:33:44.204Z,2.95
2022-08-26T18:36:17.339Z,3.17
2022-08-26T18:38:46.979Z,3.55
2022-08-26T18:41:15.148Z,3.20
2022-08-26T18:43:43.451Z,3.10
2022-08-26T18:46:11.901Z,3.13
2022-08-26T18:48:41.615Z,3.15
2022-08-26T18:51:12.486Z,3.70
2022-08-26T18:53:42.041Z,3.08
2022-08-26T18:56:13.217Z,3.20
2022-08-26T18:58:44.351Z,3.20
2022-08-26T19:01:12.432Z,3.30
2022-08-26T19:03:40.498Z,2.95
2022-08-26T19:06:09.562Z,3.22
2022-08-26T19:08:37.531Z,3.00
2022-08-26T19:11:14.221Z,3.42
2022-08-26T19:13:42.509Z,2.97
2022-08-26T19:16:16.635Z,2.97
2022-08-26T19:18:45.058Z,2.70
2022-08-26T19:21:14.089Z,3.03
2022-08-26T19:23:42.067Z,3.53
2022-08-26T19:26:11.447Z,3.58
2022-08-26T19:28:41.296Z,3.47
2022-08-26T19:31:11.463Z,3.33
2022-08-26T19:33:40.688Z,3.30
2022-08-26T19:36:12.725Z,3.42
2022-08-26T19:38:42.928Z,3.72
2022-08-26T19:41:13.151Z,3.15
2022-08-26T19:43:43.318Z,3.80
2022-08-26T19:46:17.397Z,3.63
2022-08-26T19:48:45.827Z,3.83
2022-08-26T19:51:15.696Z,4.00
2022-08-26T19:53:44.746Z,3.90
2022-08-26T19:56:12.904Z,4.07
2022-08-26T19:58:43.241Z,3.53
2022-08-26T20:01:12.398Z,4.03
2022-08-26T20:03:40.977Z,4.22
2022-08-26T20:06:10.532Z,3.95
2022-08-26T20:08:40.642Z,4.03
2022-08-26T20:11:11.951Z,4.30
2022-08-26T20:13:40.368Z,3.83
2022-08-26T20:16:12.085Z,4.05
2022-08-26T20:18:58.420Z,3.95
2022-08-26T20:21:29.533Z,4.10
2022-08-26T20:24:00.963Z,4.15
2022-08-26T20:26:30.753Z,5.07
2022-08-26T20:28:59.283Z,4.40
2022-08-26T20:31:30.102Z,4.25
2022-08-26T20:33:58.657Z,4.18
2022-08-26T20:36:28.443Z,4.13
2022-08-26T20:38:57.765Z,4.00
2022-08-26T20:41:26.538Z,4.50
2022-08-26T20:43:55.215Z,4.88
2022-08-26T20:46:25.086Z,4.47
2022-08-26T20:48:55.562Z,4.20
2022-08-26T20:51:26.283Z,4.03
2022-08-26T20:53:54.543Z,3.70
2022-08-26T20:56:46.498Z,3.78
2022-08-26T20:59:15.377Z,4.07
2022-08-26T21:01:44.005Z,3.65
2022-08-26T21:04:17.015Z,4.07
2022-08-26T21:06:52.090Z,3.55
2022-08-26T21:09:22.559Z,3.38
2022-08-26T21:11:51.192Z,3.85
2022-08-26T21:14:20.606Z,3.47
2022-08-26T21:16:48.758Z,3.42
2022-08-26T21:19:20.093Z,2.90
2022-08-26T21:21:49.153Z,3.45
2022-08-26T21:24:18.081Z,3.05
2022-08-26T21:26:46.836Z,3.67
2022-08-26T21:29:14.925Z,3.17
2022-08-26T21:31:46.444Z,3.15
2022-08-26T21:34:15.409Z,2.80
2022-08-26T21:36:44.881Z,3.28
2022-08-26T21:39:13.880Z,3.17
2022-08-26T21:41:43.223Z,3.67
2022-08-26T21:44:12.147Z,5.03
2022-08-26T21:46:40.246Z,5.10
2022-08-26T21:49:10.882Z,5.40
2022-08-26T21:51:41.620Z,4.63
2022-08-26T21:54:12.274Z,4.10
2022-08-26T21:56:44.298Z,3.92
2022-08-26T21:59:12.849Z,3.70
2022-08-26T22:01:40.837Z,3.22
2022-08-26T22:04:10.591Z,2.72
2022-08-26T22:06:43.977Z,2.90
2022-08-26T22:09:14.803Z,3.15
2022-08-26T22:11:42.969Z,2.70
2022-08-26T22:14:11.368Z,2.75
2022-08-26T22:16:39.611Z,2.78
2022-08-26T22:19:07.807Z,2.95
2022-08-26T22:21:40.573Z,2.75
2022-08-26T22:24:12.131Z,2.85
2022-08-26T22:26:41.541Z,2.72
2022-08-26T22:29:09.604Z,2.88
2022-08-26T22:31:38.736Z,3.08
2022-08-26T22:34:09.263Z,2.80
2022-08-26T22:36:42.926Z,3.50
2022-08-26T22:39:13.439Z,3.50
2022-08-26T22:41:43.590Z,3.38
2022-08-26T22:44:13.089Z,2.85
2022-08-26T22:46:42.283Z,2.90
2022-08-26T22:49:12.547Z,3.47
2022-08-26T22:51:40.624Z,3.28
2022-08-26T22:54:08.735Z,3.00
2022-08-26T22:56:37.257Z,3.20
2022-08-26T22:59:07.994Z,2.83
2022-08-26T23:01:37.717Z,3.45
2022-08-26T23:04:06.737Z,3.03
2022-08-26T23:06:37.559Z,2.95
2022-08-26T23:09:06.388Z,2.95
2022-08-26T23:11:35.035Z,2.58
2022-08-26T23:14:06.435Z,2.80
2022-08-26T23:16:39.326Z,3.70
2022-08-26T23:19:08.142Z,3.50
2022-08-26T23:21:36.266Z,4.03
2022-08-26T23:24:05.160Z,4.53
2022-08-26T23:26:33.779Z,3.88
2022-08-26T23:29:02.109Z,4.28
2022-08-26T23:31:30.253Z,3.92
2022-08-26T23:34:17.570Z,3.83
2022-08-26T23:36:45.733Z,3.95
2022-08-26T23:39:15.245Z,3.97
2022-08-26T23:41:43.494Z,4.32
2022-08-26T23:44:12.354Z,3.90
2022-08-26T23:46:40.400Z,3.90
2022-08-26T23:49:10.076Z,3.97
2022-08-26T23:51:56.501Z,4.32
2022-08-26T23:54:24.576Z,3.78
2022-08-26T23:56:52.575Z,3.33
2022-08-26T23:59:21.103Z,3.67
